sensor_id;sensor_type;location;lat;lon;timestamp;P1;durP1;ratioP1;P2;durP2;ratioP2
50281;SDS011;36176;51.506;10.272;2022-08-27T00:02:13;17.95;;;16.33;;
50281;SDS011;36176;51.506;10.272;2022-08-27T00:04:42;20.52;;;18.95;;
50281;SDS011;36176;51.506;10.272;2022-08-27T00:07:10;18.80;;;17.17;;
50281;SDS011;36176;51.506;10.272;2022-08-27T00:09:38;14.82;;;13.32;;
50281;SDS011;36176;51.506;10.272;2022-08-27T00:12:06;19.17;;;17.40;;
50281;SDS011;36176;51.506;10.272;2022-08-27T00:14:35;15.75;;;14.23;;
50281;SDS011;36176;51.506;10.272;2022-08-27T00:17:03;16.52;;;15.25;;
50281;SDS011;36176;51.506;10.272;2022-08-27T00:19:32;19.33;;;17.60;;
50281;SDS011;36176;51.506;10.272;2022-08-27T00:21:59;18.85;;;17.05;;
50281;SDS011;36176;51.506;10.272;2022-08-27T00:24:26;20.92;;;17.42;;
50281;SDS011;36176;51.506;10.272;2022-08-27T00:26:54;20.80;;;19.02;;
50281;SDS011;36176;51.506;10.272;2022-08-27T00:29:21;20.25;;;18.25;;
50281;SDS011;36176;51.506;10.272;2022-08-27T00:31:51;16.98;;;15.32;;
50281;SDS011;36176;51.506;10.272;2022-08-27T00:34:20;22.60;;;20.80;;
50281;SDS011;36176;51.506;10.272;2022-08-27T00:36:48;20.00;;;18.23;;
50281;SDS011;36176;51.506;10.272;2022-08-27T00:39:16;16.25;;;14.88;;
50281;SDS011;36176;51.506;10.272;2022-08-27T00:41:43;19.35;;;17.60;;
50281;SDS011;36176;51.506;10.272;2022-08-27T00:44:29;21.13;;;19.13;;
50281;SDS011;36176;51.506;10.272;2022-08-27T00:46:59;19.90;;;18.08;;
50281;SDS011;36176;51.506;10.272;2022-08-27T00:49:31;16.48;;;13.50;;
50281;SDS011;36176;51.506;10.272;2022-08-27T00:51:59;20.60;;;18.95;;
50281;SDS011;36176;51.506;10.272;2022-08-27T00:54:31;19.35;;;17.67;;
50281;SDS011;36176;51.506;10.272;2022-08-27T00:56:59;21.73;;;19.95;;
50281;SDS011;36176;51.506;10.272;2022-08-27T00:59:27;14.85;;;13.43;;
50281;SDS011;36176;51.506;10.272;2022-08-27T01:01:57;23.33;;;21.27;;
50281;SDS011;36176;51.506;10.272;2022-08-27T01:04:46;18.77;;;17.08;;
50281;SDS011;36176;51.506;10.272;2022-08-27T01:07:17;19.50;;;17.40;;
50281;SDS011;36176;51.506;10.272;2022-08-27T01:09:45;23.17;;;20.92;;
50281;SDS011;36176;51.506;10.272;2022-08-27T01:12:15;21.60;;;19.40;;
50281;SDS011;36176;51.506;10.272;2022-08-27T01:14:43;18.30;;;16.63;;
50281;SDS011;36176;51.506;10.272;2022-08-27T01:17:11;18.42;;;16.70;;
50281;SDS011;36176;51.506;10.272;2022-08-27T01:25:09;24.88;;;22.05;;
50281;SDS011;36176;51.506;10.272;2022-08-27T01:27:49;24.52;;;22.20;;
50281;SDS011;36176;51.506;10.272;2022-08-27T01:30:38;27.73;;;22.38;;
50281;SDS011;36176;51.506;10.272;2022-08-27T01:33:14;34.55;;;30.63;;
50281;SDS011;36176;51.506;10.272;2022-08-27T01:35:46;33.35;;;29.80;;
50281;SDS011;36176;51.506;10.272;2022-08-27T01:38:27;33.35;;;26.25;;
50281;SDS011;36176;51.506;10.272;2022-08-27T01:40:57;33.05;;;28.20;;
50281;SDS011;36176;51.506;10.272;2022-08-27T01:43:27;29.42;;;25.73;;
50281;SDS011;36176;51.506;10.272;2022-08-27T01:45:55;38.00;;;28.33;;
50281;SDS011;36176;51.506;10.272;2022-08-27T01:48:31;36.03;;;32.35;;
50281;SDS011;36176;51.506;10.272;2022-08-27T01:51:17;40.08;;;33.90;;
50281;SDS011;36176;51.506;10.272;2022-08-27T01:53:57;44.78;;;35.50;;
50281;SDS011;36176;51.506;10.272;2022-08-27T01:56:28;47.30;;;32.03;;
50281;SDS011;36176;51.506;10.272;2022-08-27T01:59:08;46.13;;;36.20;;
50281;SDS011;36176;51.506;10.272;2022-08-27T02:04:55;34.33;;;30.70;;
50281;SDS011;36176;51.506;10.272;2022-08-27T02:07:47;47.15;;;38.13;;
50281;SDS011;36176;51.506;10.272;2022-08-27T02:10:36;43.55;;;33.90;;
50281;SDS011;36176;51.506;10.272;2022-08-27T02:13:21;57.72;;;37.53;;
50281;SDS011;36176;51.506;10.272;2022-08-27T02:16:01;36.70;;;30.65;;
50281;SDS011;36176;51.506;10.272;2022-08-27T02:18:31;41.88;;;32.92;;
50281;SDS011;36176;51.506;10.272;2022-08-27T02:21:18;30.73;;;25.52;;
50281;SDS011;36176;51.506;10.272;2022-08-27T02:24:17;49.58;;;38.55;;
50281;SDS011;36176;51.506;10.272;2022-08-27T02:27:41;54.72;;;36.22;;
50281;SDS011;36176;51.506;10.272;2022-08-27T02:30:20;36.22;;;30.92;;
50281;SDS011;36176;51.506;10.272;2022-08-27T02:32:52;48.10;;;35.75;;
50281;SDS011;36176;51.506;10.272;2022-08-27T02:35:49;47.92;;;34.78;;
50281;SDS011;36176;51.506;10.272;2022-08-27T02:38:39;36.47;;;28.92;;
50281;SDS011;36176;51.506;10.272;2022-08-27T02:41:42;43.47;;;32.05;;
50281;SDS011;36176;51.506;10.272;2022-08-27T02:44:46;34.72;;;26.20;;
50281;SDS011;36176;51.506;10.272;2022-08-27T02:47:20;48.25;;;32.97;;
50281;SDS011;36176;51.506;10.272;2022-08-27T02:50:34;39.47;;;29.92;;
50281;SDS011;36176;51.506;10.272;2022-08-27T02:53:03;57.17;;;34.47;;
50281;SDS011;36176;51.506;10.272;2022-08-27T02:55:32;53.53;;;35.78;;
50281;SDS011;36176;51.506;10.272;2022-08-27T02:58:25;45.97;;;31.05;;
50281;SDS011;36176;51.506;10.272;2022-08-27T03:01:36;74.47;;;42.45;;
50281;SDS011;36176;51.506;10.272;2022-08-27T03:05:19;45.90;;;32.05;;
50281;SDS011;36176;51.506;10.272;2022-08-27T03:08:51;55.60;;;32.55;;
50281;SDS011;36176;51.506;10.272;2022-08-27T03:11:45;43.63;;;32.97;;
50281;SDS011;36176;51.506;10.272;2022-08-27T03:14:47;46.35;;;32.33;;
50281;SDS011;36176;51.506;10.272;2022-08-27T03:21:03;48.42;;;29.98;;
50281;SDS011;36176;51.506;10.272;2022-08-27T03:24:23;46.83;;;30.25;;
50281;SDS011;36176;51.506;10.272;2022-08-27T03:26:57;53.80;;;32.78;;
50281;SDS011;36176;51.506;10.272;2022-08-27T03:30:53;45.38;;;30.10;;
50281;SDS011;36176;51.506;10.272;2022-08-27T03:34:17;77.93;;;40.60;;
50281;SDS011;36176;51.506;10.272;2022-08-27T03:36:53;37.63;;;26.73;;
50281;SDS011;36176;51.506;10.272;2022-08-27T03:39:34;50.07;;;31.20;;
50281;SDS011;36176;51.506;10.272;2022-08-27T03:42:15;40.88;;;27.60;;
50281;SDS011;36176;51.506;10.272;2022-08-27T03:47:54;57.70;;;32.67;;
50281;SDS011;36176;51.506;10.272;2022-08-27T03:54:31;31.65;;;22.88;;
50281;SDS011;36176;51.506;10.272;2022-08-27T03:57:26;37.70;;;27.57;;
50281;SDS011;36176;51.506;10.272;2022-08-27T04:04:34;31.07;;;23.70;;
50281;SDS011;36176;51.506;10.272;2022-08-27T04:15:57;28.53;;;21.07;;
50281;SDS011;36176;51.506;10.272;2022-08-27T04:19:30;32.80;;;24.70;;
50281;SDS011;36176;51.506;10.272;2022-08-27T04:22:47;49.70;;;38.72;;
50281;SDS011;36176;51.506;10.272;2022-08-27T04:25:15;36.60;;;25.00;;
50281;SDS011;36176;51.506;10.272;2022-08-27T04:27:43;42.45;;;26.85;;
50281;SDS011;36176;51.506;10.272;2022-08-27T04:30:11;23.90;;;19.03;;
50281;SDS011;36176;51.506;10.272;2022-08-27T04:32:41;42.03;;;26.40;;
50281;SDS011;36176;51.506;10.272;2022-08-27T04:35:09;31.20;;;23.40;;
50281;SDS011;36176;51.506;10.272;2022-08-27T04:37:37;25.20;;;19.87;;
50281;SDS011;36176;51.506;10.272;2022-08-27T04:40:06;40.47;;;26.93;;
50281;SDS011;36176;51.506;10.272;2022-08-27T04:42:34;41.43;;;26.77;;
50281;SDS011;36176;51.506;10.272;2022-08-27T04:45:01;37.47;;;24.97;;
50281;SDS011;36176;51.506;10.272;2022-08-27T04:47:30;37.42;;;24.85;;
50281;SDS011;36176;51.506;10.272;2022-08-27T04:49:58;36.07;;;24.50;;
50281;SDS011;36176;51.506;10.272;2022-08-27T04:52:27;32.30;;;22.20;;
50281;SDS011;36176;51.506;10.272;2022-08-27T04:54:54;34.40;;;24.13;;
50281;SDS011;36176;51.506;10.272;2022-08-27T04:57:23;41.38;;;26.55;;
50281;SDS011;36176;51.506;10.272;2022-08-27T04:59:51;35.80;;;25.47;;
50281;SDS011;36176;51.506;10.272;2022-08-27T05:02:37;35.13;;;23.73;;
50281;SDS011;36176;51.506;10.272;2022-08-27T05:05:04;81.93;;;37.30;;
50281;SDS011;36176;51.506;10.272;2022-08-27T05:07:32;33.90;;;24.70;;
50281;SDS011;36176;51.506;10.272;2022-08-27T05:10:00;43.23;;;28.17;;
50281;SDS011;36176;51.506;10.272;2022-08-27T05:12:27;34.60;;;23.85;;
50281;SDS011;36176;51.506;10.272;2022-08-27T05:14:54;33.77;;;23.87;;
50281;SDS011;36176;51.506;10.272;2022-08-27T05:17:22;43.83;;;27.13;;
50281;SDS011;36176;51.506;10.272;2022-08-27T05:19:55;24.27;;;20.17;;
50281;SDS011;36176;51.506;10.272;2022-08-27T05:22:22;39.88;;;26.77;;
50281;SDS011;36176;51.506;10.272;2022-08-27T05:24:49;39.60;;;26.00;;
50281;SDS011;36176;51.506;10.272;2022-08-27T05:27:17;43.80;;;29.20;;
50281;SDS011;36176;51.506;10.272;2022-08-27T05:29:44;32.15;;;25.50;;
50281;SDS011;36176;51.506;10.272;2022-08-27T05:32:19;32.43;;;23.33;;
50281;SDS011;36176;51.506;10.272;2022-08-27T05:34:47;36.97;;;25.53;;
50281;SDS011;36176;51.506;10.272;2022-08-27T05:37:14;62.00;;;31.80;;
50281;SDS011;36176;51.506;10.272;2022-08-27T05:39:42;52.67;;;31.33;;
50281;SDS011;36176;51.506;10.272;2022-08-27T05:42:09;25.90;;;19.47;;
50281;SDS011;36176;51.506;10.272;2022-08-27T05:44:37;39.33;;;26.13;;
50281;SDS011;36176;51.506;10.272;2022-08-27T05:47:07;28.23;;;21.70;;
50281;SDS011;36176;51.506;10.272;2022-08-27T05:49:35;48.43;;;28.93;;
50281;SDS011;36176;51.506;10.272;2022-08-27T05:52:06;35.37;;;21.50;;
50281;SDS011;36176;51.506;10.272;2022-08-27T05:54:34;23.07;;;17.30;;
50281;SDS011;36176;51.506;10.272;2022-08-27T05:57:02;26.30;;;20.90;;
50281;SDS011;36176;51.506;10.272;2022-08-27T05:59:29;32.27;;;22.47;;
50281;SDS011;36176;51.506;10.272;2022-08-27T06:02:25;24.33;;;19.43;;
50281;SDS011;36176;51.506;10.272;2022-08-27T06:04:54;30.10;;;20.23;;
50281;SDS011;36176;51.506;10.272;2022-08-27T06:07:22;29.27;;;19.95;;
50281;SDS011;36176;51.506;10.272;2022-08-27T06:09:49;29.37;;;20.43;;
50281;SDS011;36176;51.506;10.272;2022-08-27T06:12:16;19.57;;;17.37;;
50281;SDS011;36176;51.506;10.272;2022-08-27T06:14:44;32.05;;;19.98;;
50281;SDS011;36176;51.506;10.272;2022-08-27T06:17:11;22.07;;;16.57;;
50281;SDS011;36176;51.506;10.272;2022-08-27T06:19:57;29.33;;;20.57;;
50281;SDS011;36176;51.506;10.272;2022-08-27T06:22:42;34.83;;;22.10;;
50281;SDS011;36176;51.506;10.272;2022-08-27T06:25:10;21.30;;;15.80;;
50281;SDS011;36176;51.506;10.272;2022-08-27T06:27:38;22.85;;;16.02;;
50281;SDS011;36176;51.506;10.272;2022-08-27T06:30:06;25.98;;;18.35;;
50281;SDS011;36176;51.506;10.272;2022-08-27T06:32:33;24.97;;;16.97;;
50281;SDS011;36176;51.506;10.272;2022-08-27T06:35:01;21.67;;;16.60;;
50281;SDS011;36176;51.506;10.272;2022-08-27T06:37:31;18.02;;;14.73;;
50281;SDS011;36176;51.506;10.272;2022-08-27T06:39:59;16.65;;;14.50;;
50281;SDS011;36176;51.506;10.272;2022-08-27T06:42:26;18.77;;;15.57;;
50281;SDS011;36176;51.506;10.272;2022-08-27T06:44:54;21.75;;;14.90;;
50281;SDS011;36176;51.506;10.272;2022-08-27T06:47:21;14.88;;;11.93;;
50281;SDS011;36176;51.506;10.272;2022-08-27T06:49:55;16.00;;;12.85;;
50281;SDS011;36176;51.506;10.272;2022-08-27T06:52:23;15.80;;;10.77;;
50281;SDS011;36176;51.506;10.272;2022-08-27T06:54:54;12.20;;;10.95;;
50281;SDS011;36176;51.506;10.272;2022-08-27T06:57:21;13.98;;;10.52;;
50281;SDS011;36176;51.506;10.272;2022-08-27T06:59:50;13.43;;;10.40;;
50281;SDS011;36176;51.506;10.272;2022-08-27T07:02:17;9.77;;;8.70;;
50281;SDS011;36176;51.506;10.272;2022-08-27T07:04:44;10.32;;;9.18;;
50281;SDS011;36176;51.506;10.272;2022-08-27T07:07:12;12.35;;;10.80;;
50281;SDS011;36176;51.506;10.272;2022-08-27T07:09:57;11.05;;;9.70;;
50281;SDS011;36176;51.506;10.272;2022-08-27T07:12:24;13.18;;;11.00;;
50281;SDS011;36176;51.506;10.272;2022-08-27T07:14:56;11.27;;;10.00;;
50281;SDS011;36176;51.506;10.272;2022-08-27T07:17:25;10.80;;;9.77;;
50281;SDS011;36176;51.506;10.272;2022-08-27T07:20:05;10.90;;;9.60;;
50281;SDS011;36176;51.506;10.272;2022-08-27T07:22:37;10.23;;;9.23;;
50281;SDS011;36176;51.506;10.272;2022-08-27T07:25:07;15.47;;;10.33;;
50281;SDS011;36176;51.506;10.272;2022-08-27T07:27:38;19.40;;;13.80;;
50281;SDS011;36176;51.506;10.272;2022-08-27T07:30:06;18.15;;;13.48;;
50281;SDS011;36176;51.506;10.272;2022-08-27T07:32:35;16.03;;;12.90;;
50281;SDS011;36176;51.506;10.272;2022-08-27T07:35:02;17.77;;;13.37;;
50281;SDS011;36176;51.506;10.272;2022-08-27T07:37:30;17.07;;;13.33;;
50281;SDS011;36176;51.506;10.272;2022-08-27T07:40:02;15.93;;;13.07;;
50281;SDS011;36176;51.506;10.272;2022-08-27T07:42:31;15.03;;;13.37;;
50281;SDS011;36176;51.506;10.272;2022-08-27T07:45:17;14.18;;;12.52;;
50281;SDS011;36176;51.506;10.272;2022-08-27T07:47:44;20.02;;;16.98;;
50281;SDS011;36176;51.506;10.272;2022-08-27T07:50:12;11.70;;;10.50;;
50281;SDS011;36176;51.506;10.272;2022-08-27T07:52:40;14.90;;;12.48;;
50281;SDS011;36176;51.506;10.272;2022-08-27T07:55:10;13.20;;;11.88;;
50281;SDS011;36176;51.506;10.272;2022-08-27T07:57:38;15.95;;;12.73;;
50281;SDS011;36176;51.506;10.272;2022-08-27T08:00:07;19.13;;;13.70;;
50281;SDS011;36176;51.506;10.272;2022-08-27T08:02:39;16.83;;;12.23;;
50281;SDS011;36176;51.506;10.272;2022-08-27T08:05:22;9.70;;;8.70;;
50281;SDS011;36176;51.506;10.272;2022-08-27T08:07:50;14.83;;;10.50;;
50281;SDS011;36176;51.506;10.272;2022-08-27T08:10:17;11.65;;;10.40;;
50281;SDS011;36176;51.506;10.272;2022-08-27T08:12:51;11.98;;;10.65;;
50281;SDS011;36176;51.506;10.272;2022-08-27T08:15:19;14.15;;;10.40;;
50281;SDS011;36176;51.506;10.272;2022-08-27T08:17:46;15.07;;;11.30;;
50281;SDS011;36176;51.506;10.272;2022-08-27T08:20:32;16.80;;;14.15;;
50281;SDS011;36176;51.506;10.272;2022-08-27T08:23:19;11.55;;;10.35;;
50281;SDS011;36176;51.506;10.272;2022-08-27T08:25:59;13.98;;;9.93;;
50281;SDS011;36176;51.506;10.272;2022-08-27T08:28:27;14.45;;;12.85;;
50281;SDS011;36176;51.506;10.272;2022-08-27T08:30:56;16.27;;;12.20;;
50281;SDS011;36176;51.506;10.272;2022-08-27T08:33:24;16.02;;;11.07;;
50281;SDS011;36176;51.506;10.272;2022-08-27T08:35:53;16.55;;;12.80;;
50281;SDS011;36176;51.506;10.272;2022-08-27T08:38:22;14.57;;;10.83;;
50281;SDS011;36176;51.506;10.272;2022-08-27T08:40:51;14.40;;;13.00;;
50281;SDS011;36176;51.506;10.272;2022-08-27T08:43:24;13.50;;;11.05;;
50281;SDS011;36176;51.506;10.272;2022-08-27T08:46:06;15.90;;;11.35;;
50281;SDS011;36176;51.506;10.272;2022-08-27T08:48:53;17.60;;;11.98;;
50281;SDS011;36176;51.506;10.272;2022-08-27T08:51:37;15.25;;;12.93;;
50281;SDS011;36176;51.506;10.272;2022-08-27T08:54:12;13.95;;;12.18;;
50281;SDS011;36176;51.506;10.272;2022-08-27T08:56:51;15.15;;;12.57;;
50281;SDS011;36176;51.506;10.272;2022-08-27T08:59:36;16.30;;;13.38;;
50281;SDS011;36176;51.506;10.272;2022-08-27T09:02:07;16.60;;;13.02;;
50281;SDS011;36176;51.506;10.272;2022-08-27T09:04:40;16.80;;;13.55;;
50281;SDS011;36176;51.506;10.272;2022-08-27T09:07:14;13.73;;;12.27;;
50281;SDS011;36176;51.506;10.272;2022-08-27T09:09:55;17.02;;;15.35;;
50281;SDS011;36176;51.506;10.272;2022-08-27T09:12:55;16.85;;;13.63;;
50281;SDS011;36176;51.506;10.272;2022-08-27T09:15:28;14.57;;;11.77;;
50281;SDS011;36176;51.506;10.272;2022-08-27T09:18:07;17.20;;;12.07;;
50281;SDS011;36176;51.506;10.272;2022-08-27T09:20:41;16.70;;;12.45;;
50281;SDS011;36176;51.506;10.272;2022-08-27T09:26:01;14.60;;;11.07;;
50281;SDS011;36176;51.506;10.272;2022-08-27T09:28:28;15.85;;;11.60;;
50281;SDS011;36176;51.506;10.272;2022-08-27T09:31:15;15.23;;;11.85;;
50281;SDS011;36176;51.506;10.272;2022-08-27T09:33:46;16.27;;;11.38;;
50281;SDS011;36176;51.506;10.272;2022-08-27T09:36:23;16.35;;;12.07;;
50281;SDS011;36176;51.506;10.272;2022-08-27T09:38:55;17.60;;;12.90;;
50281;SDS011;36176;51.506;10.272;2022-08-27T09:41:26;15.43;;;13.57;;
50281;SDS011;36176;51.506;10.272;2022-08-27T09:44:10;13.70;;;11.75;;
50281;SDS011;36176;51.506;10.272;2022-08-27T09:46:49;16.38;;;12.20;;
50281;SDS011;36176;51.506;10.272;2022-08-27T09:49:21;18.15;;;11.88;;
50281;SDS011;36176;51.506;10.272;2022-08-27T09:51:49;17.70;;;16.05;;
50281;SDS011;36176;51.506;10.272;2022-08-27T09:54:38;16.25;;;12.10;;
50281;SDS011;36176;51.506;10.272;2022-08-27T09:57:09;15.57;;;12.85;;
50281;SDS011;36176;51.506;10.272;2022-08-27T09:59:40;13.75;;;11.48;;
50281;SDS011;36176;51.506;10.272;2022-08-27T10:02:19;11.10;;;9.73;;
50281;SDS011;36176;51.506;10.272;2022-08-27T10:04:53;14.98;;;13.10;;
50281;SDS011;36176;51.506;10.272;2022-08-27T10:07:40;14.10;;;12.60;;
50281;SDS011;36176;51.506;10.272;2022-08-27T10:10:39;17.58;;;12.18;;
50281;SDS011;36176;51.506;10.272;2022-08-27T10:19:14;14.85;;;12.80;;
50281;SDS011;36176;51.506;10.272;2022-08-27T10:21:53;12.48;;;10.27;;
50281;SDS011;36176;51.506;10.272;2022-08-27T10:25:45;15.27;;;12.68;;
50281;SDS011;36176;51.506;10.272;2022-08-27T10:33:38;15.43;;;13.38;;
50281;SDS011;36176;51.506;10.272;2022-08-27T10:36:24;19.98;;;13.43;;
50281;SDS011;36176;51.506;10.272;2022-08-27T10:41:32;14.88;;;11.25;;
50281;SDS011;36176;51.506;10.272;2022-08-27T10:58:25;15.63;;;13.93;;
50281;SDS011;36176;51.506;10.272;2022-08-27T11:01:10;17.58;;;14.13;;
50281;SDS011;36176;51.506;10.272;2022-08-27T11:03:48;14.80;;;12.20;;
50281;SDS011;36176;51.506;10.272;2022-08-27T11:08:59;13.98;;;12.15;;
50281;SDS011;36176;51.506;10.272;2022-08-27T11:11:45;14.30;;;11.70;;
50281;SDS011;36176;51.506;10.272;2022-08-27T11:14:59;15.73;;;11.15;;
50281;SDS011;36176;51.506;10.272;2022-08-27T11:17:39;12.95;;;10.60;;
50281;SDS011;36176;51.506;10.272;2022-08-27T11:20:28;11.80;;;10.07;;
50281;SDS011;36176;51.506;10.272;2022-08-27T11:23:16;13.57;;;9.30;;
50281;SDS011;36176;51.506;10.272;2022-08-27T11:25:49;14.43;;;10.65;;
50281;SDS011;36176;51.506;10.272;2022-08-27T11:28:30;17.02;;;15.27;;
50281;SDS011;36176;51.506;10.272;2022-08-27T11:31:32;17.63;;;12.18;;
50281;SDS011;36176;51.506;10.272;2022-08-27T11:39:56;14.55;;;10.05;;
50281;SDS011;36176;51.506;10.272;2022-08-27T11:42:45;14.75;;;10.52;;
50281;SDS011;36176;51.506;10.272;2022-08-27T11:45:19;17.67;;;11.60;;
50281;SDS011;36176;51.506;10.272;2022-08-27T11:47:52;17.27;;;15.52;;
50281;SDS011;36176;51.506;10.272;2022-08-27T11:50:40;13.23;;;11.77;;
50281;SDS011;36176;51.506;10.272;2022-08-27T11:53:22;15.88;;;14.30;;
50281;SDS011;36176;51.506;10.272;2022-08-27T11:56:32;14.90;;;10.50;;
50281;SDS011;36176;51.506;10.272;2022-08-27T11:59:30;16.08;;;14.43;;
50281;SDS011;36176;51.506;10.272;2022-08-27T12:02:19;15.27;;;13.32;;
50281;SDS011;36176;51.506;10.272;2022-08-27T12:04:53;13.63;;;10.60;;
50281;SDS011;36176;51.506;10.272;2022-08-27T12:07:33;16.55;;;14.23;;
50281;SDS011;36176;51.506;10.272;2022-08-27T12:12:56;16.83;;;15.15;;
50281;SDS011;36176;51.506;10.272;2022-08-27T12:18:26;15.18;;;12.90;;
50281;SDS011;36176;51.506;10.272;2022-08-27T12:21:22;14.88;;;13.40;;
50281;SDS011;36176;51.506;10.272;2022-08-27T12:26:59;16.10;;;14.65;;
50281;SDS011;36176;51.506;10.272;2022-08-27T12:37:27;15.13;;;13.63;;
50281;SDS011;36176;51.506;10.272;2022-08-27T12:39:57;16.65;;;15.07;;
50281;SDS011;36176;51.506;10.272;2022-08-27T12:42:27;18.02;;;16.17;;
50281;SDS011;36176;51.506;10.272;2022-08-27T12:44:55;13.73;;;12.52;;
50281;SDS011;36176;51.506;10.272;2022-08-27T12:47:25;15.23;;;13.88;;
50281;SDS011;36176;51.506;10.272;2022-08-27T12:50:00;13.63;;;11.20;;
50281;SDS011;36176;51.506;10.272;2022-08-27T12:52:41;16.80;;;10.38;;
50281;SDS011;36176;51.506;10.272;2022-08-27T12:58:34;20.48;;;18.67;;
50281;SDS011;36176;51.506;10.272;2022-08-27T13:01:22;11.35;;;10.18;;
50281;SDS011;36176;51.506;10.272;2022-08-27T13:04:15;19.00;;;17.23;;
50281;SDS011;36176;51.506;10.272;2022-08-27T13:06:48;9.02;;;7.88;;
50281;SDS011;36176;51.506;10.272;2022-08-27T13:09:23;14.10;;;12.80;;
50281;SDS011;36176;51.506;10.272;2022-08-27T13:11:59;12.20;;;11.00;;
50281;SDS011;36176;51.506;10.272;2022-08-27T13:14:34;17.27;;;15.48;;
50281;SDS011;36176;51.506;10.272;2022-08-27T13:17:15;13.20;;;11.70;;
50281;SDS011;36176;51.506;10.272;2022-08-27T13:22:23;21.25;;;19.48;;
50281;SDS011;36176;51.506;10.272;2022-08-27T13:24:54;10.00;;;7.88;;
50281;SDS011;36176;51.506;10.272;2022-08-27T13:27:23;18.48;;;16.60;;
50281;SDS011;36176;51.506;10.272;2022-08-27T13:29:55;19.23;;;17.50;;
50281;SDS011;36176;51.506;10.272;2022-08-27T13:32:28;12.50;;;11.18;;
50281;SDS011;36176;51.506;10.272;2022-08-27T13:34:57;17.95;;;16.35;;
50281;SDS011;36176;51.506;10.272;2022-08-27T13:37:27;10.18;;;7.70;;
50281;SDS011;36176;51.506;10.272;2022-08-27T13:40:00;17.58;;;16.17;;
50281;SDS011;36176;51.506;10.272;2022-08-27T13:42:28;14.13;;;12.52;;
50281;SDS011;36176;51.506;10.272;2022-08-27T13:45:01;14.90;;;13.60;;
50281;SDS011;36176;51.506;10.272;2022-08-27T13:47:30;11.85;;;10.45;;
50281;SDS011;36176;51.506;10.272;2022-08-27T13:50:17;14.73;;;13.40;;
50281;SDS011;36176;51.506;10.272;2022-08-27T13:55:53;14.02;;;12.73;;
50281;SDS011;36176;51.506;10.272;2022-08-27T13:58:24;24.98;;;22.88;;
50281;SDS011;36176;51.506;10.272;2022-08-27T14:00:53;15.70;;;14.05;;
50281;SDS011;36176;51.506;10.272;2022-08-27T14:03:22;19.20;;;17.35;;
50281;SDS011;36176;51.506;10.272;2022-08-27T14:05:56;13.10;;;10.73;;
50281;SDS011;36176;51.506;10.272;2022-08-27T14:08:26;15.15;;;13.40;;
50281;SDS011;36176;51.506;10.272;2022-08-27T14:10:59;11.88;;;9.15;;
50281;SDS011;36176;51.506;10.272;2022-08-27T14:13:50;15.82;;;14.18;;
50281;SDS011;36176;51.506;10.272;2022-08-27T14:16:24;14.25;;;12.93;;
50281;SDS011;36176;51.506;10.272;2022-08-27T14:21:50;14.80;;;12.77;;
50281;SDS011;36176;51.506;10.272;2022-08-27T14:24:18;13.55;;;11.40;;
50281;SDS011;36176;51.506;10.272;2022-08-27T14:26:50;14.75;;;9.88;;
50281;SDS011;36176;51.506;10.272;2022-08-27T14:29:18;12.00;;;8.88;;
50281;SDS011;36176;51.506;10.272;2022-08-27T14:31:47;13.95;;;11.25;;
50281;SDS011;36176;51.506;10.272;2022-08-27T14:34:14;13.57;;;11.57;;
50281;SDS011;36176;51.506;10.272;2022-08-27T14:36:42;10.55;;;9.48;;
50281;SDS011;36176;51.506;10.272;2022-08-27T14:39:10;27.20;;;24.75;;
50281;SDS011;36176;51.506;10.272;2022-08-27T14:41:38;17.70;;;11.05;;
50281;SDS011;36176;51.506;10.272;2022-08-27T14:44:12;9.02;;;7.13;;
50281;SDS011;36176;51.506;10.272;2022-08-27T14:46:40;19.42;;;17.80;;
50281;SDS011;36176;51.506;10.272;2022-08-27T14:49:13;11.02;;;9.90;;
50281;SDS011;36176;51.506;10.272;2022-08-27T14:51:46;14.65;;;13.23;;
50281;SDS011;36176;51.506;10.272;2022-08-27T14:54:14;11.05;;;7.97;;
50281;SDS011;36176;51.506;10.272;2022-08-27T14:56:42;15.20;;;13.70;;
50281;SDS011;36176;51.506;10.272;2022-08-27T14:59:09;11.38;;;9.43;;
50281;SDS011;36176;51.506;10.272;2022-08-27T15:01:36;11.63;;;10.48;;
50281;SDS011;36176;51.506;10.272;2022-08-27T15:04:04;20.10;;;18.58;;
50281;SDS011;36176;51.506;10.272;2022-08-27T15:06:32;15.55;;;14.13;;
50281;SDS011;36176;51.506;10.272;2022-08-27T15:08:59;14.57;;;13.30;;
50281;SDS011;36176;51.506;10.272;2022-08-27T15:11:28;11.85;;;8.23;;
50281;SDS011;36176;51.506;10.272;2022-08-27T15:13:59;9.77;;;8.65;;
50281;SDS011;36176;51.506;10.272;2022-08-27T15:16:34;12.85;;;11.55;;
50281;SDS011;36176;51.506;10.272;2022-08-27T15:19:04;15.98;;;14.27;;
50281;SDS011;36176;51.506;10.272;2022-08-27T15:21:35;13.48;;;11.75;;
50281;SDS011;36176;51.506;10.272;2022-08-27T15:24:06;26.15;;;22.85;;
50281;SDS011;36176;51.506;10.272;2022-08-27T15:26:59;11.60;;;10.02;;
50281;SDS011;36176;51.506;10.272;2022-08-27T15:29:26;18.10;;;13.25;;
50281;SDS011;36176;51.506;10.272;2022-08-27T15:32:29;15.38;;;13.63;;
50281;SDS011;36176;51.506;10.272;2022-08-27T15:35:07;11.07;;;8.80;;
50281;SDS011;36176;51.506;10.272;2022-08-27T15:37:40;18.73;;;16.95;;
50281;SDS011;36176;51.506;10.272;2022-08-27T15:40:09;13.18;;;9.60;;
50281;SDS011;36176;51.506;10.272;2022-08-27T15:42:38;18.92;;;16.75;;
50281;SDS011;36176;51.506;10.272;2022-08-27T15:45:06;13.80;;;12.32;;
50281;SDS011;36176;51.506;10.272;2022-08-27T15:47:35;17.08;;;14.00;;
50281;SDS011;36176;51.506;10.272;2022-08-27T15:50:11;16.83;;;11.20;;
50281;SDS011;36176;51.506;10.272;2022-08-27T15:52:38;17.27;;;15.57;;
50281;SDS011;36176;51.506;10.272;2022-08-27T15:55:18;14.43;;;13.05;;
50281;SDS011;36176;51.506;10.272;2022-08-27T15:57:47;12.70;;;9.05;;
50281;SDS011;36176;51.506;10.272;2022-08-27T16:00:15;14.95;;;11.57;;
50281;SDS011;36176;51.506;10.272;2022-08-27T16:02:43;13.60;;;12.05;;
50281;SDS011;36176;51.506;10.272;2022-08-27T16:05:15;12.10;;;10.82;;
50281;SDS011;36176;51.506;10.272;2022-08-27T16:07:48;13.73;;;10.23;;
50281;SDS011;36176;51.506;10.272;2022-08-27T16:10:16;11.88;;;8.57;;
50281;SDS011;36176;51.506;10.272;2022-08-27T16:12:44;13.90;;;11.48;;
50281;SDS011;36176;51.506;10.272;2022-08-27T16:15:12;14.80;;;12.27;;
50281;SDS011;36176;51.506;10.272;2022-08-27T16:17:40;13.95;;;7.55;;
50281;SDS011;36176;51.506;10.272;2022-08-27T16:20:26;11.65;;;7.10;;
50281;SDS011;36176;51.506;10.272;2022-08-27T16:22:54;12.10;;;7.90;;
50281;SDS011;36176;51.506;10.272;2022-08-27T16:25:21;16.45;;;14.93;;
50281;SDS011;36176;51.506;10.272;2022-08-27T16:27:49;12.63;;;9.68;;
50281;SDS011;36176;51.506;10.272;2022-08-27T16:30:17;12.95;;;9.88;;
50281;SDS011;36176;51.506;10.272;2022-08-27T16:32:46;15.02;;;9.27;;
50281;SDS011;36176;51.506;10.272;2022-08-27T16:35:16;14.30;;;7.18;;
50281;SDS011;36176;51.506;10.272;2022-08-27T16:37:44;16.88;;;15.20;;
50281;SDS011;36176;51.506;10.272;2022-08-27T16:40:12;14.57;;;13.00;;
50281;SDS011;36176;51.506;10.272;2022-08-27T16:42:42;10.90;;;8.10;;